createdAt,value
2024-04-18T00:01:24.690Z,2.72
2024-04-18T00:04:30.005Z,2.98
2024-04-18T00:07:36.451Z,3.12
2024-04-18T00:10:53.296Z,3.33
2024-04-18T00:14:14.338Z,3.66
2024-04-18T00:17:20.073Z,3.59
2024-04-18T00:20:23.744Z,3.36
2024-04-18T00:23:27.332Z,3.17
2024-04-18T00:26:45.412Z,3.22
2024-04-18T00:29:50.911Z,3.16
2024-04-18T00:32:54.742Z,3.33
2024-04-18T00:36:13.710Z,3.33
2024-04-18T00:39:26.647Z,3.42
2024-04-18T00:42:35.997Z,3.39
2024-04-18T00:45:43.321Z,3.23
2024-04-18T00:48:59.890Z,3.22
2024-04-18T00:52:03.921Z,3.63
2024-04-18T00:55:09.286Z,3.97
2024-04-18T00:58:13.911Z,4.07
2024-04-18T01:01:19.062Z,3.89
2024-04-18T01:04:32.201Z,3.84
2024-04-18T01:07:55.967Z,3.89
2024-04-18T01:10:59.411Z,4.22
2024-04-18T01:14:11.356Z,4.58
2024-04-18T01:17:35.034Z,5.05
2024-04-18T01:20:39.873Z,5.26
2024-04-18T01:23:43.466Z,4.97
2024-04-18T01:26:48.589Z,4.99
2024-04-18T01:29:52.226Z,4.91
2024-04-18T01:33:14.724Z,4.75
2024-04-18T01:36:18.476Z,4.52
2024-04-18T01:39:28.687Z,4.51
2024-04-18T01:42:41.904Z,4.63
2024-04-18T01:46:00.860Z,4.57
2024-04-18T01:49:04.551Z,4.33
2024-04-18T01:52:42.259Z,4.48
2024-04-18T01:55:46.151Z,4.33
2024-04-18T01:59:12.746Z,4.33
2024-04-18T02:02:16.308Z,4.46
2024-04-18T02:05:40.241Z,4.43
2024-04-18T02:08:52.965Z,4.44
2024-04-18T02:12:15.198Z,4.16
2024-04-18T02:15:37.622Z,4.05
2024-04-18T02:18:51.434Z,3.94
2024-04-18T02:21:56.279Z,4.05
2024-04-18T02:25:13.376Z,4.12
2024-04-18T02:28:17.151Z,4.28
2024-04-18T02:31:21.007Z,4.44
2024-04-18T02:34:27.607Z,4.45
2024-04-18T02:37:31.392Z,4.58
2024-04-18T02:40:35.288Z,4.66
2024-04-18T02:43:39.155Z,4.47
2024-04-18T02:46:42.823Z,4.30
2024-04-18T02:49:49.577Z,4.39
2024-04-18T02:52:53.244Z,4.41
2024-04-18T02:55:57.951Z,4.42
2024-04-18T02:59:08.469Z,4.50
2024-04-18T03:02:28.473Z,4.53
2024-04-18T03:05:50.730Z,4.42
2024-04-18T03:09:01.574Z,4.41
2024-04-18T03:12:08.163Z,4.55
2024-04-18T03:15:17.590Z,4.72
2024-04-18T03:18:39.865Z,4.93
2024-04-18T03:21:53.005Z,4.88
2024-04-18T03:24:56.797Z,4.85
2024-04-18T03:28:03.480Z,4.98
2024-04-18T03:31:07.215Z,5.02
2024-04-18T03:34:11.712Z,5.13
2024-04-18T03:37:27.255Z,5.14
2024-04-18T03:40:31.049Z,5.06
2024-04-18T03:43:42.719Z,5.02
2024-04-18T03:46:46.336Z,5.16
2024-04-18T03:50:10.353Z,5.15
2024-04-18T03:53:13.960Z,5.26
2024-04-18T03:56:17.564Z,5.23
2024-04-18T03:59:22.985Z,5.16
2024-04-18T04:02:26.955Z,5.15
2024-04-18T04:05:30.504Z,5.18
2024-04-18T04:08:34.294Z,5.26
2024-04-18T04:11:46.775Z,5.33
2024-04-18T04:14:51.515Z,5.49
2024-04-18T04:17:56.340Z,5.48
2024-04-18T04:21:17.501Z,5.59
2024-04-18T04:24:22.085Z,5.75
2024-04-18T04:27:25.987Z,5.85
2024-04-18T04:30:29.547Z,5.88
2024-04-18T04:33:36.434Z,5.88
2024-04-18T04:36:41.931Z,6.02
2024-04-18T04:39:46.012Z,6.01
2024-04-18T04:42:57.185Z,6.05
2024-04-18T04:46:02.436Z,6.07
2024-04-18T04:49:15.245Z,6.03
2024-04-18T04:52:38.161Z,6.29
2024-04-18T04:55:54.493Z,6.55
2024-04-18T04:58:58.222Z,6.62
2024-04-18T05:02:01.756Z,6.62
2024-04-18T05:05:23.758Z,6.66
2024-04-18T05:08:39.334Z,6.59
2024-04-18T05:11:43.163Z,6.46
2024-04-18T05:15:06.905Z,6.44
2024-04-18T05:18:35.274Z,6.66
2024-04-18T05:21:39.403Z,6.64
2024-04-18T05:25:02.490Z,6.56
2024-04-18T05:28:12.639Z,6.50
2024-04-18T05:31:16.611Z,6.56
2024-04-18T05:34:20.356Z,6.60
2024-04-18T05:37:25.277Z,6.71
2024-04-18T05:40:29.741Z,6.92
2024-04-18T05:43:35.393Z,7.17
2024-04-18T05:46:39.435Z,7.53
2024-04-18T05:49:43.318Z,7.72
2024-04-18T05:52:47.144Z,8.02
2024-04-18T05:55:59.912Z,8.18
2024-04-18T05:59:03.466Z,8.32
2024-04-18T06:02:09.986Z,8.49
2024-04-18T06:05:19.273Z,8.45
2024-04-18T06:09:04.256Z,8.20
2024-04-18T06:12:09.332Z,8.20
2024-04-18T06:15:13.027Z,8.16
2024-04-18T06:18:18.225Z,8.11
2024-04-18T06:21:21.813Z,8.16
2024-04-18T06:24:25.777Z,7.98
2024-04-18T06:27:30.300Z,8.01
2024-04-18T06:30:34.358Z,8.24
2024-04-18T06:33:39.367Z,8.45
2024-04-18T06:36:43.196Z,8.42
2024-04-18T06:39:47.722Z,8.42
2024-04-18T06:42:54.808Z,8.45
2024-04-18T06:45:58.773Z,8.43
2024-04-18T06:49:02.678Z,8.53
2024-04-18T06:52:06.909Z,8.53
2024-04-18T06:55:10.635Z,8.52
2024-04-18T06:58:20.783Z,8.62
2024-04-18T07:01:24.628Z,8.56
2024-04-18T07:04:34.539Z,8.39
2024-04-18T07:07:47.449Z,8.46
2024-04-18T07:11:09.148Z,8.47
2024-04-18T07:14:14.509Z,8.46
2024-04-18T07:17:18.558Z,8.48
2024-04-18T07:20:40.278Z,8.70
2024-04-18T07:23:44.005Z,8.77
2024-04-18T07:26:48.769Z,8.76
2024-04-18T07:29:52.701Z,8.70
2024-04-18T07:32:56.540Z,8.59
2024-04-18T07:36:23.277Z,8.45
2024-04-18T07:39:28.133Z,8.45
2024-04-18T07:42:32.545Z,8.35
2024-04-18T07:45:37.693Z,8.29
2024-04-18T07:48:42.552Z,8.36
2024-04-18T07:51:47.678Z,8.47
2024-04-18T07:54:51.541Z,8.61
2024-04-18T07:57:55.592Z,8.76
2024-04-18T08:01:01.001Z,8.86
2024-04-18T08:04:26.955Z,8.89
2024-04-18T08:07:31.280Z,8.97
2024-04-18T08:10:51.536Z,8.98
2024-04-18T08:14:04.610Z,9.02
2024-04-18T08:17:12.036Z,9.22
2024-04-18T08:20:16.784Z,9.27
2024-04-18T08:23:22.580Z,9.05
2024-04-18T08:26:26.247Z,9.01
2024-04-18T08:29:30.316Z,9.07
2024-04-18T08:32:35.184Z,9.13
2024-04-18T08:35:40.625Z,8.89
2024-04-18T08:38:45.492Z,8.80
2024-04-18T08:41:50.044Z,8.76
2024-04-18T08:44:57.555Z,8.66
2024-04-18T08:48:05.598Z,8.58
2024-04-18T08:51:09.661Z,8.52
2024-04-18T08:54:13.569Z,8.54
2024-04-18T08:57:23.385Z,8.62
2024-04-18T09:00:27.261Z,8.63
2024-04-18T09:03:31.960Z,8.60
2024-04-18T09:06:35.798Z,8.65
2024-04-18T09:09:39.574Z,8.82
2024-04-18T09:12:43.389Z,8.86
2024-04-18T09:15:47.409Z,8.77
2024-04-18T09:18:52.907Z,8.72
2024-04-18T09:21:57.272Z,8.70
2024-04-18T09:25:01.046Z,8.78
2024-04-18T09:28:05.200Z,8.74
2024-04-18T09:31:09.498Z,8.69
2024-04-18T09:34:19.754Z,8.68
2024-04-18T09:37:29.148Z,8.76
2024-04-18T09:40:35.703Z,8.82
2024-04-18T09:44:08.924Z,8.83
2024-04-18T09:47:15.995Z,8.79
2024-04-18T09:50:20.797Z,8.84
2024-04-18T09:53:24.492Z,8.77
2024-04-18T09:56:30.229Z,8.65
2024-04-18T09:59:34.611Z,8.68
2024-04-18T10:02:39.763Z,8.63
2024-04-18T10:05:50.061Z,8.52
2024-04-18T10:08:55.679Z,8.47
2024-04-18T10:11:59.944Z,8.44
2024-04-18T10:15:03.773Z,8.34
2024-04-18T10:18:20.464Z,8.39
2024-04-18T10:21:33.017Z,8.36
2024-04-18T10:24:42.333Z,8.38
2024-04-18T10:27:46.037Z,8.41
2024-04-18T10:30:51.048Z,8.36
2024-04-18T10:33:55.865Z,8.26
2024-04-18T10:37:07.541Z,8.28
2024-04-18T10:40:17.282Z,8.25
2024-04-18T10:43:21.083Z,8.17
2024-04-18T10:46:25.443Z,8.15
2024-04-18T10:49:29.359Z,8.06
2024-04-18T10:52:32.941Z,7.93
2024-04-18T10:55:37.419Z,7.87
2024-04-18T10:58:42.017Z,7.90
2024-04-18T11:01:45.783Z,7.87
2024-04-18T11:04:49.417Z,7.86
2024-04-18T11:07:55.557Z,7.89
2024-04-18T11:10:59.660Z,7.85
2024-04-18T11:14:04.746Z,7.77
2024-04-18T11:17:09.505Z,7.74
2024-04-18T11:20:14.007Z,7.72
2024-04-18T11:23:17.956Z,7.71
2024-04-18T11:26:21.852Z,7.66
2024-04-18T11:29:31.771Z,7.63
2024-04-18T11:32:35.745Z,7.57
2024-04-18T11:35:39.554Z,7.52
2024-04-18T11:38:49.541Z,7.46
2024-04-18T11:41:53.239Z,7.40
2024-04-18T11:44:57.028Z,7.34
2024-04-18T11:48:01.235Z,7.31
2024-04-18T11:51:05.394Z,7.24
2024-04-18T11:54:09.202Z,7.18
2024-04-18T11:57:13.337Z,7.12
2024-04-18T12:00:17.702Z,7.06
2024-04-18T12:03:42.526Z,7.09
2024-04-18T12:07:04.963Z,7.08
2024-04-18T12:10:09.264Z,7.04
2024-04-18T12:13:13.040Z,6.96
2024-04-18T12:16:37.002Z,6.84
2024-04-18T12:19:46.522Z,6.81
2024-04-18T12:23:08.752Z,6.82
2024-04-18T12:26:13.108Z,6.78
2024-04-18T12:29:24.838Z,6.77
2024-04-18T12:32:34.401Z,6.72
2024-04-18T12:35:38.455Z,6.71
2024-04-18T12:38:42.342Z,6.68
2024-04-18T12:41:46.324Z,6.65
2024-04-18T12:44:51.882Z,6.60
2024-04-18T12:48:01.786Z,6.54
2024-04-18T12:51:07.372Z,6.50
2024-04-18T12:54:20.104Z,6.46
2024-04-18T12:57:24.373Z,6.37
2024-04-18T13:00:40.097Z,6.23
2024-04-18T13:03:44.952Z,6.11
2024-04-18T13:07:08.089Z,6.01
2024-04-18T13:10:12.517Z,5.91
2024-04-18T13:13:22.166Z,5.85
2024-04-18T13:16:44.410Z,5.81
2024-04-18T13:19:48.621Z,5.72
2024-04-18T13:22:52.619Z,5.60
2024-04-18T13:25:56.929Z,5.49
2024-04-18T13:29:00.513Z,5.39
2024-04-18T13:32:04.594Z,5.31
2024-04-18T13:35:09.583Z,5.20
2024-04-18T13:38:13.338Z,5.12
2024-04-18T13:41:30.171Z,5.02
2024-04-18T13:44:51.057Z,4.97
2024-04-18T13:48:20.573Z,4.85
2024-04-18T13:51:24.371Z,4.70
2024-04-18T13:54:28.253Z,4.61
2024-04-18T13:57:32.188Z,4.50
2024-04-18T14:00:54.417Z,4.44
2024-04-18T14:04:04.797Z,4.45
2024-04-18T14:07:17.617Z,4.42
2024-04-18T14:10:23.075Z,4.36
2024-04-18T14:13:45.627Z,4.28
2024-04-18T14:17:24.478Z,4.18
2024-04-18T14:20:50.271Z,4.12
2024-04-18T14:23:53.992Z,4.07
2024-04-18T14:26:58.086Z,4.02
2024-04-18T14:30:02.168Z,3.93
2024-04-18T14:33:12.155Z,3.83
2024-04-18T14:36:15.930Z,3.79
2024-04-18T14:39:20.054Z,3.73
2024-04-18T14:42:24.171Z,3.70
2024-04-18T14:45:27.873Z,3.68
2024-04-18T14:48:31.627Z,3.63
2024-04-18T14:51:35.423Z,3.61
2024-04-18T14:54:59.282Z,3.58
2024-04-18T14:58:09.076Z,3.54
2024-04-18T15:01:24.787Z,3.55
2024-04-18T15:04:31.451Z,3.55
2024-04-18T15:08:13.860Z,3.46
2024-04-18T15:11:28.267Z,3.35
2024-04-18T15:14:39.106Z,3.25
2024-04-18T15:17:43.180Z,3.17
2024-04-18T15:20:47.194Z,3.16
2024-04-18T15:23:50.874Z,3.18
2024-04-18T15:27:05.200Z,3.13
2024-04-18T15:30:09.310Z,3.02
2024-04-18T15:33:13.357Z,2.91
2024-04-18T15:36:19.885Z,2.90
2024-04-18T15:39:27.296Z,2.86
2024-04-18T15:42:30.983Z,2.83
2024-04-18T15:45:43.047Z,2.82
2024-04-18T15:48:59.763Z,2.77
2024-04-18T15:52:07.132Z,2.66
2024-04-18T15:55:23.249Z,2.62
2024-04-18T15:58:27.246Z,2.66
2024-04-18T16:01:50.134Z,2.67
2024-04-18T16:05:12.142Z,2.59
2024-04-18T16:08:15.925Z,2.53
2024-04-18T16:11:19.870Z,2.53
2024-04-18T16:14:32.706Z,2.50
2024-04-18T16:17:39.985Z,2.42
2024-04-18T16:20:57.171Z,2.37
2024-04-18T16:24:15.315Z,2.28
2024-04-18T16:27:19.321Z,2.17
2024-04-18T16:30:34.697Z,2.14
2024-04-18T16:33:39.362Z,2.04
2024-04-18T16:37:08.932Z,2.01
2024-04-18T16:40:19.909Z,2.02
2024-04-18T16:43:38.189Z,2.05
2024-04-18T16:46:42.790Z,2.06
2024-04-18T16:49:46.379Z,2.06
2024-04-18T16:52:50.351Z,2.03
2024-04-18T16:56:12.461Z,2.05
2024-04-18T16:59:29.240Z,2.00
2024-04-18T17:02:33.150Z,1.98
2024-04-18T17:05:37.137Z,2.01
2024-04-18T17:08:43.962Z,1.96
2024-04-18T17:11:48.460Z,1.92
2024-04-18T17:15:10.557Z,1.81
2024-04-18T17:18:14.384Z,1.77
2024-04-18T17:21:18.189Z,1.72
2024-04-18T17:24:22.502Z,1.72
2024-04-18T17:27:41.515Z,1.69
2024-04-18T17:30:48.962Z,1.64
2024-04-18T17:33:53.052Z,1.59
2024-04-18T17:36:57.040Z,1.57
2024-04-18T17:40:20.586Z,1.50
2024-04-18T17:43:36.495Z,1.43
2024-04-18T17:46:40.477Z,1.40
2024-04-18T17:49:44.674Z,1.37
2024-04-18T17:52:48.649Z,1.36
2024-04-18T17:55:54.671Z,1.31
2024-04-18T17:58:58.953Z,1.30
2024-04-18T18:02:03.310Z,1.17
2024-04-18T18:05:07.163Z,1.16
2024-04-18T18:08:11.478Z,1.15
2024-04-18T18:11:18.027Z,1.10
2024-04-18T18:14:21.839Z,1.07
2024-04-18T18:17:36.864Z,1.10
2024-04-18T18:20:40.935Z,1.07
2024-04-18T18:23:46.635Z,0.98
2024-04-18T18:27:10.472Z,1.00
2024-04-18T18:30:14.222Z,0.97
2024-04-18T18:33:18.206Z,0.92
2024-04-18T18:36:23.295Z,0.89
2024-04-18T18:39:27.745Z,0.87
2024-04-18T18:42:31.492Z,0.81
2024-04-18T18:45:35.361Z,0.82
2024-04-18T18:48:38.925Z,0.79
2024-04-18T18:51:46.048Z,0.77
2024-04-18T18:54:49.998Z,0.68
2024-04-18T18:57:53.973Z,0.67
2024-04-18T19:00:57.606Z,0.67
2024-04-18T19:04:01.437Z,0.64
2024-04-18T19:07:05.229Z,0.60
2024-04-18T19:10:09.056Z,0.48
2024-04-18T19:13:13.068Z,0.48
2024-04-18T19:16:31.379Z,0.47
2024-04-18T19:19:38.125Z,0.40
2024-04-18T19:22:42.069Z,0.32
2024-04-18T19:25:47.173Z,0.31
2024-04-18T19:28:52.339Z,0.36
2024-04-18T19:31:57.099Z,0.41
2024-04-18T19:35:01.054Z,0.42
2024-04-18T19:38:05.160Z,0.40
2024-04-18T19:41:27.637Z,0.37
2024-04-18T19:44:32.542Z,0.34
2024-04-18T19:47:36.393Z,0.28
2024-04-18T19:50:41.017Z,0.23
2024-04-18T19:53:59.846Z,0.15
2024-04-18T19:57:04.572Z,0.08
2024-04-18T20:00:08.801Z,0.06
2024-04-18T20:03:19.322Z,0.04
2024-04-18T20:06:23.105Z,-0.03
2024-04-18T20:09:33.907Z,-0.05
2024-04-18T20:12:37.616Z,-0.11
2024-04-18T20:15:44.364Z,-0.11
2024-04-18T20:18:48.582Z,-0.13
2024-04-18T20:21:52.310Z,-0.10
2024-04-18T20:24:57.655Z,-0.09
2024-04-18T20:28:16.657Z,-0.17
2024-04-18T20:31:20.339Z,-0.20
2024-04-18T20:34:24.202Z,-0.20
2024-04-18T20:37:28.932Z,-0.20
2024-04-18T20:40:33.123Z,-0.23
2024-04-18T20:43:36.756Z,-0.29
2024-04-18T20:46:40.426Z,-0.30
2024-04-18T20:49:44.078Z,-0.37
2024-04-18T20:52:48.094Z,-0.45
2024-04-18T20:55:52.195Z,-0.54
2024-04-18T20:58:55.922Z,-0.57
2024-04-18T21:02:01.588Z,-0.59
2024-04-18T21:05:07.376Z,-0.61
2024-04-18T21:08:11.432Z,-0.62
2024-04-18T21:11:14.961Z,-0.67
2024-04-18T21:14:18.703Z,-0.72
2024-04-18T21:17:22.502Z,-0.71
2024-04-18T21:20:26.225Z,-0.69
2024-04-18T21:23:29.938Z,-0.67
2024-04-18T21:26:33.697Z,-0.60
2024-04-18T21:29:37.435Z,-0.61
2024-04-18T21:32:41.326Z,-0.61
2024-04-18T21:35:48.452Z,-0.62
2024-04-18T21:39:09.176Z,-0.65
2024-04-18T21:42:12.868Z,-0.68
2024-04-18T21:45:17.033Z,-0.71
2024-04-18T21:48:20.757Z,-0.79
2024-04-18T21:51:24.473Z,-0.75
2024-04-18T21:54:28.160Z,-0.77
2024-04-18T21:57:32.386Z,-0.73
2024-04-18T22:00:35.996Z,-0.72
2024-04-18T22:03:39.822Z,-0.69
2024-04-18T22:06:43.743Z,-0.76
2024-04-18T22:09:47.602Z,-0.76
2024-04-18T22:12:51.354Z,-0.65
2024-04-18T22:15:55.037Z,-0.63
2024-04-18T22:18:59.056Z,-0.58
2024-04-18T22:22:12.038Z,-0.53
2024-04-18T22:25:15.707Z,-0.54
2024-04-18T22:28:19.497Z,-0.43
2024-04-18T22:31:23.045Z,-0.32
2024-04-18T22:34:31.361Z,-0.17
2024-04-18T22:38:00.741Z,-0.04
2024-04-18T22:41:04.635Z,0.00
2024-04-18T22:44:08.532Z,0.09
2024-04-18T22:47:13.986Z,0.21
2024-04-18T22:50:18.064Z,0.32
2024-04-18T22:53:21.852Z,0.33
2024-04-18T22:56:27.581Z,0.34
2024-04-18T22:59:31.266Z,0.44
2024-04-18T23:02:35.183Z,0.53
2024-04-18T23:05:41.012Z,0.64
2024-04-18T23:08:45.229Z,0.72
2024-04-18T23:11:49.093Z,0.90
2024-04-18T23:14:53.139Z,1.02
2024-04-18T23:17:56.879Z,1.05
2024-04-18T23:21:01.010Z,1.13
2024-04-18T23:24:10.904Z,1.19
2024-04-18T23:27:15.552Z,1.23
2024-04-18T23:30:19.450Z,1.44
2024-04-18T23:33:23.535Z,1.62
2024-04-18T23:36:27.384Z,1.80
2024-04-18T23:39:31.621Z,1.94
2024-04-18T23:42:35.439Z,2.01
2024-04-18T23:45:39.416Z,2.16
2024-04-18T23:48:43.372Z,2.36
2024-04-18T23:51:47.405Z,2.51
2024-04-18T23:54:52.614Z,2.65
2024-04-18T23:57:56.261Z,2.86
